createdAt,value
2022-09-28T00:02:16.196Z,78.14
2022-09-28T00:04:44.721Z,77.22
2022-09-28T00:07:13.102Z,77.88
2022-09-28T00:09:41.692Z,78.01
2022-09-28T00:12:11.383Z,78.01
2022-09-28T00:14:42.055Z,77.77
2022-09-28T00:17:11.816Z,77.92
2022-09-28T00:19:40.338Z,77.19
2022-09-28T00:22:08.899Z,78.21
2022-09-28T00:24:37.721Z,78.46
2022-09-28T00:27:06.282Z,77.47
2022-09-28T00:29:36.464Z,78.12
2022-09-28T00:32:09.426Z,78.24
2022-09-28T00:34:49.064Z,77.91
2022-09-28T00:37:23.704Z,77.46
2022-09-28T00:40:01.238Z,78.18
2022-09-28T00:42:31.812Z,77.43
2022-09-28T00:45:06.012Z,78.31
2022-09-28T00:47:51.099Z,78.43
2022-09-28T00:50:28.822Z,78.18
2022-09-28T00:53:07.389Z,78.74
2022-09-28T00:55:43.427Z,78.57
2022-09-28T00:58:21.440Z,77.61
2022-09-28T01:00:54.069Z,78.06
2022-09-28T01:03:29.736Z,78.09
2022-09-28T01:06:08.226Z,77.62
2022-09-28T01:08:39.859Z,77.67
2022-09-28T01:11:08.486Z,78.38
2022-09-28T01:13:37.576Z,77.96
2022-09-28T01:16:12.842Z,78.46
2022-09-28T01:18:53.243Z,78.48
2022-09-28T01:21:24.806Z,77.80
2022-09-28T01:24:16.912Z,78.99
2022-09-28T01:26:52.582Z,78.08
2022-09-28T01:29:32.958Z,77.76
2022-09-28T01:32:10.471Z,78.95
2022-09-28T01:34:43.740Z,78.87
2022-09-28T01:37:14.754Z,78.14
2022-09-28T01:39:48.688Z,78.89
2022-09-28T01:42:22.144Z,78.31
2022-09-28T01:44:54.738Z,78.92
2022-09-28T01:47:26.630Z,78.86
2022-09-28T01:50:00.820Z,78.57
2022-09-28T01:52:31.684Z,78.14
2022-09-28T01:55:07.329Z,78.12
2022-09-28T01:57:42.330Z,78.53
2022-09-28T02:00:16.235Z,78.33
2022-09-28T02:02:48.502Z,79.03
2022-09-28T02:05:23.724Z,78.04
2022-09-28T02:07:59.236Z,78.12
2022-09-28T02:10:33.875Z,78.29
2022-09-28T02:13:05.120Z,78.08
2022-09-28T02:15:42.170Z,79.18
2022-09-28T02:18:11.082Z,78.65
2022-09-28T02:20:42.550Z,79.03
2022-09-28T02:23:11.129Z,78.11
2022-09-28T02:25:45.219Z,79.25
2022-09-28T02:28:14.964Z,78.71
2022-09-28T02:30:45.328Z,78.78
2022-09-28T02:33:18.638Z,79.28
2022-09-28T02:35:49.475Z,78.72
2022-09-28T02:38:19.418Z,79.10
2022-09-28T02:40:57.933Z,79.17
2022-09-28T02:43:38.210Z,79.07
2022-09-28T02:46:16.154Z,78.27
2022-09-28T02:49:20.331Z,78.94
2022-09-28T02:52:08.237Z,78.99
2022-09-28T02:54:58.011Z,78.95
2022-09-28T02:57:37.380Z,79.11
2022-09-28T03:00:11.495Z,79.09
2022-09-28T03:02:50.174Z,79.19
2022-09-28T03:05:21.981Z,79.48
2022-09-28T03:07:57.585Z,79.46
2022-09-28T03:10:35.262Z,79.34
2022-09-28T03:13:05.522Z,78.73
2022-09-28T03:15:36.128Z,79.41
2022-09-28T03:18:05.796Z,79.64
2022-09-28T03:20:34.735Z,78.74
2022-09-28T03:23:24.927Z,79.13
2022-09-28T03:25:54.221Z,79.42
2022-09-28T03:28:23.475Z,79.52
2022-09-28T03:30:52.374Z,79.38
2022-09-28T03:33:26.844Z,79.47
2022-09-28T03:35:55.452Z,79.52
2022-09-28T03:38:24.960Z,79.21
2022-09-28T03:40:59.334Z,79.32
2022-09-28T03:43:29.828Z,79.11
2022-09-28T03:46:01.723Z,79.24
2022-09-28T03:48:37.120Z,79.56
2022-09-28T03:51:09.546Z,79.12
2022-09-28T03:53:40.096Z,79.20
2022-09-28T03:56:12.585Z,78.83
2022-09-28T03:58:41.454Z,79.29
2022-09-28T04:01:16.914Z,78.96
2022-09-28T04:03:47.578Z,79.69
2022-09-28T04:06:16.449Z,79.80
2022-09-28T04:08:45.059Z,78.77
2022-09-28T04:11:13.654Z,78.87
2022-09-28T04:13:42.771Z,79.25
2022-09-28T04:16:15.664Z,79.92
2022-09-28T04:18:48.357Z,79.28
2022-09-28T04:21:38.118Z,78.92
2022-09-28T04:24:11.833Z,79.85
2022-09-28T04:26:40.480Z,79.32
2022-09-28T04:29:16.784Z,79.46
2022-09-28T04:31:57.509Z,79.12
2022-09-28T04:34:51.292Z,79.17
2022-09-28T04:37:19.746Z,79.80
2022-09-28T04:39:48.718Z,79.52
2022-09-28T04:42:20.306Z,78.98
2022-09-28T04:44:50.949Z,79.74
2022-09-28T04:47:19.439Z,80.02
2022-09-28T04:49:53.822Z,79.16
2022-09-28T04:52:28.259Z,79.32
2022-09-28T04:54:56.802Z,79.35
2022-09-28T04:57:27.430Z,79.47
2022-09-28T04:59:56.395Z,79.32
2022-09-28T05:02:24.883Z,79.50
2022-09-28T05:04:54.818Z,79.43
2022-09-28T05:07:42.065Z,79.82
2022-09-28T05:10:10.982Z,79.60
2022-09-28T05:12:41.265Z,79.10
2022-09-28T05:15:11.713Z,79.37
2022-09-28T05:17:40.297Z,79.36
2022-09-28T05:20:21.974Z,79.13
2022-09-28T05:22:50.447Z,79.86
2022-09-28T05:25:19.475Z,79.93
2022-09-28T05:28:09.217Z,79.97
2022-09-28T05:31:09.697Z,79.24
2022-09-28T05:33:53.231Z,79.81
2022-09-28T05:36:21.875Z,79.19
2022-09-28T05:38:51.241Z,79.44
2022-09-28T05:41:20.445Z,79.72
2022-09-28T05:43:51.109Z,80.08
2022-09-28T05:46:23.346Z,78.92
2022-09-28T05:48:53.706Z,79.13
2022-09-28T05:51:24.890Z,79.28
2022-09-28T05:53:55.929Z,79.95
2022-09-28T05:56:29.517Z,79.73
2022-09-28T05:58:58.869Z,79.52
2022-09-28T06:01:31.050Z,79.26
2022-09-28T06:04:03.057Z,79.28
2022-09-28T06:06:36.117Z,79.33
2022-09-28T06:09:07.359Z,79.28
2022-09-28T06:12:00.548Z,79.30
2022-09-28T06:14:49.587Z,79.66
2022-09-28T06:17:18.412Z,79.02
2022-09-28T06:19:53.068Z,79.49
2022-09-28T06:22:27.866Z,79.97
2022-09-28T06:25:02.562Z,79.55
2022-09-28T06:27:31.575Z,79.22
2022-09-28T06:30:03.394Z,79.78
2022-09-28T06:32:32.223Z,79.70
2022-09-28T06:35:02.033Z,78.94
2022-09-28T06:37:32.553Z,79.44
2022-09-28T06:40:03.145Z,79.37
2022-09-28T06:42:32.748Z,79.90
2022-09-28T06:45:24.049Z,79.51
2022-09-28T06:48:24.871Z,78.89
2022-09-28T06:50:54.059Z,78.81
2022-09-28T06:53:29.181Z,78.93
2022-09-28T06:56:02.289Z,79.41
2022-09-28T06:58:31.871Z,78.89
2022-09-28T07:01:01.671Z,79.03
2022-09-28T07:03:35.355Z,79.76
2022-09-28T07:06:25.688Z,79.60
2022-09-28T07:09:31.411Z,79.62
2022-09-28T07:12:14.166Z,78.80
2022-09-28T07:14:56.001Z,79.09
2022-09-28T07:17:25.982Z,78.70
2022-09-28T07:19:59.047Z,78.84
2022-09-28T07:22:41.526Z,78.98
2022-09-28T07:25:14.469Z,79.13
2022-09-28T07:28:22.045Z,78.45
2022-09-28T07:31:11.457Z,79.26
2022-09-28T07:33:55.711Z,78.87
2022-09-28T07:36:34.923Z,78.13
2022-09-28T07:39:05.132Z,78.61
2022-09-28T07:41:35.712Z,78.97
2022-09-28T07:44:08.455Z,78.10
2022-09-28T07:46:38.819Z,77.47
2022-09-28T07:49:14.983Z,78.56
2022-09-28T07:52:10.275Z,77.89
2022-09-28T07:54:51.633Z,78.63
2022-09-28T07:57:39.466Z,78.59
2022-09-28T08:00:22.292Z,77.47
2022-09-28T08:02:51.082Z,77.88
2022-09-28T08:05:24.058Z,78.12
2022-09-28T08:07:52.891Z,78.03
2022-09-28T08:10:22.078Z,77.35
2022-09-28T08:13:08.807Z,77.53
2022-09-28T08:16:13.724Z,78.22
2022-09-28T08:18:50.701Z,78.11
2022-09-28T08:21:38.731Z,77.25
2022-09-28T08:24:09.882Z,77.94
2022-09-28T08:26:38.797Z,77.90
2022-09-28T08:29:10.152Z,77.09
2022-09-28T08:31:50.969Z,76.69
2022-09-28T08:34:41.342Z,77.56
2022-09-28T08:37:39.303Z,76.49
2022-09-28T08:40:28.454Z,76.22
2022-09-28T08:43:24.383Z,76.75
2022-09-28T08:46:29.041Z,76.33
2022-09-28T08:49:30.571Z,76.62
2022-09-28T08:52:22.931Z,76.03
2022-09-28T08:55:02.489Z,76.36
2022-09-28T08:57:48.114Z,74.88
2022-09-28T09:00:21.799Z,74.97
2022-09-28T09:02:50.549Z,74.55
2022-09-28T09:05:28.724Z,71.89
2022-09-28T09:08:14.620Z,70.74
2022-09-28T09:10:51.003Z,70.92
2022-09-28T09:13:55.526Z,71.61
2022-09-28T09:16:40.166Z,69.96
2022-09-28T09:19:41.416Z,69.59
2022-09-28T09:22:36.626Z,69.75
2022-09-28T09:25:15.019Z,69.13
2022-09-28T09:27:57.694Z,69.50
2022-09-28T09:30:31.906Z,69.58
2022-09-28T09:33:16.510Z,69.28
2022-09-28T09:36:18.916Z,68.61
2022-09-28T09:39:24.749Z,69.20
2022-09-28T09:42:17.319Z,69.28
2022-09-28T09:45:20.015Z,69.82
2022-09-28T09:48:15.001Z,69.40
2022-09-28T09:50:51.145Z,68.96
2022-09-28T09:53:28.341Z,69.16
2022-09-28T09:56:03.080Z,68.92
2022-09-28T09:58:51.743Z,68.95
2022-09-28T10:01:40.337Z,69.00
2022-09-28T10:04:46.861Z,69.08
2022-09-28T10:07:25.712Z,68.07
2022-09-28T10:10:02.999Z,67.99
2022-09-28T10:12:55.572Z,68.51
2022-09-28T10:15:27.658Z,68.26
2022-09-28T10:18:27.391Z,68.10
2022-09-28T10:21:14.331Z,68.41
2022-09-28T10:23:56.887Z,68.41
2022-09-28T10:26:35.125Z,67.93
2022-09-28T10:29:12.016Z,68.23
2022-09-28T10:31:43.959Z,67.58
2022-09-28T10:34:29.989Z,67.52
2022-09-28T10:37:07.447Z,67.81
2022-09-28T10:39:58.080Z,67.50
2022-09-28T10:42:37.455Z,67.66
2022-09-28T10:45:22.002Z,67.33
2022-09-28T10:47:51.144Z,67.02
2022-09-28T10:50:29.333Z,66.68
2022-09-28T10:53:19.550Z,66.57
2022-09-28T10:56:28.745Z,67.08
2022-09-28T10:59:24.056Z,67.05
2022-09-28T11:01:58.022Z,66.47
2022-09-28T11:04:35.909Z,67.33
2022-09-28T11:07:15.333Z,67.30
2022-09-28T11:09:51.095Z,67.56
2022-09-28T11:12:25.662Z,67.34
2022-09-28T11:15:02.627Z,66.37
2022-09-28T11:17:38.110Z,66.50
2022-09-28T11:20:35.105Z,66.16
2022-09-28T11:23:22.132Z,65.96
2022-09-28T11:26:07.598Z,65.78
2022-09-28T11:28:38.924Z,66.09
2022-09-28T11:31:15.901Z,66.15
2022-09-28T11:34:07.569Z,65.98
2022-09-28T11:37:15.356Z,65.31
2022-09-28T11:39:54.282Z,65.94
2022-09-28T11:42:33.323Z,65.67
2022-09-28T11:45:18.316Z,66.42
2022-09-28T11:47:54.047Z,65.75
2022-09-28T11:50:31.018Z,65.54
2022-09-28T11:53:20.241Z,65.42
2022-09-28T11:55:56.602Z,65.33
2022-09-28T11:58:30.885Z,65.25
2022-09-28T12:01:07.971Z,65.21
2022-09-28T12:04:02.509Z,65.17
2022-09-28T12:06:37.504Z,65.74
2022-09-28T12:09:19.500Z,64.42
2022-09-28T12:12:24.212Z,64.69
2022-09-28T12:14:59.755Z,65.03
2022-09-28T12:17:32.459Z,65.02
2022-09-28T12:20:12.343Z,65.28
2022-09-28T12:22:47.196Z,64.69
2022-09-28T12:25:21.065Z,64.48
2022-09-28T12:27:56.330Z,64.57
2022-09-28T12:30:33.558Z,64.60
2022-09-28T12:33:08.771Z,64.16
2022-09-28T12:35:48.543Z,64.58
2022-09-28T12:38:37.828Z,64.52
2022-09-28T12:41:19.290Z,64.37
2022-09-28T12:44:08.656Z,64.04
2022-09-28T12:46:54.044Z,64.15
2022-09-28T12:50:27.292Z,64.34
2022-09-28T12:55:43.677Z,64.72
2022-09-28T12:58:28.958Z,64.79
2022-09-28T13:01:13.228Z,64.83
2022-09-28T13:04:05.085Z,65.07
2022-09-28T13:06:48.723Z,64.60
2022-09-28T13:09:23.371Z,65.09
2022-09-28T13:12:18.754Z,65.14
2022-09-28T13:15:24.418Z,65.26
2022-09-28T13:18:07.434Z,64.54
2022-09-28T13:20:54.242Z,64.37
2022-09-28T13:23:26.214Z,64.83
2022-09-28T13:26:00.444Z,64.56
2022-09-28T13:28:31.226Z,64.40
2022-09-28T13:31:02.792Z,64.50
2022-09-28T13:33:36.112Z,64.06
2022-09-28T13:36:25.998Z,64.07
2022-09-28T13:38:58.894Z,63.91
2022-09-28T13:41:31.294Z,63.54
2022-09-28T13:44:24.190Z,63.50
2022-09-28T13:47:08.111Z,63.66
2022-09-28T13:49:50.199Z,63.17
2022-09-28T13:52:34.346Z,63.19
2022-09-28T13:55:24.488Z,63.20
2022-09-28T13:58:00.938Z,63.06
2022-09-28T14:00:36.265Z,62.96
2022-09-28T14:03:23.015Z,62.72
2022-09-28T14:06:12.082Z,63.39
2022-09-28T14:09:04.892Z,63.74
2022-09-28T14:11:54.077Z,63.32
2022-09-28T14:14:29.057Z,62.88
2022-09-28T14:17:50.626Z,63.48
2022-09-28T14:20:26.210Z,62.82
2022-09-28T14:23:25.213Z,63.46
2022-09-28T14:26:07.536Z,62.75
2022-09-28T14:28:49.579Z,63.31
2022-09-28T14:31:27.537Z,62.95
2022-09-28T14:33:59.490Z,63.02
2022-09-28T14:36:55.422Z,62.65
2022-09-28T14:39:49.102Z,63.71
2022-09-28T14:42:23.256Z,63.59
2022-09-28T14:45:37.978Z,63.12
2022-09-28T14:48:37.933Z,63.23
2022-09-28T14:52:20.205Z,62.60
2022-09-28T14:55:00.592Z,62.90
2022-09-28T14:57:33.199Z,63.15
2022-09-28T15:00:24.382Z,62.56
2022-09-28T15:03:08.916Z,63.04
2022-09-28T15:05:47.229Z,62.77
2022-09-28T15:08:22.330Z,62.63
2022-09-28T15:10:52.890Z,62.44
2022-09-28T15:13:25.714Z,62.79
2022-09-28T15:16:03.212Z,63.27
2022-09-28T15:19:09.885Z,63.64
2022-09-28T15:21:40.878Z,63.56
2022-09-28T15:24:31.822Z,63.46
2022-09-28T15:27:02.102Z,63.16
2022-09-28T15:29:32.945Z,63.38
2022-09-28T15:32:03.488Z,62.97
2022-09-28T15:34:54.507Z,63.34
2022-09-28T15:37:29.091Z,63.49
2022-09-28T15:40:00.779Z,63.12
2022-09-28T15:42:36.703Z,63.09
2022-09-28T15:45:25.169Z,63.55
2022-09-28T15:47:58.606Z,63.45
2022-09-28T15:50:36.371Z,63.29
2022-09-28T15:53:06.529Z,62.94
2022-09-28T15:55:42.427Z,63.56
2022-09-28T15:58:18.723Z,63.61
2022-09-28T16:00:49.546Z,63.55
2022-09-28T16:03:28.489Z,63.58
2022-09-28T16:06:10.714Z,64.58
2022-09-28T16:08:42.272Z,63.74
2022-09-28T16:11:16.860Z,64.71
2022-09-28T16:14:05.651Z,64.71
2022-09-28T16:16:38.054Z,64.25
2022-09-28T16:19:06.993Z,63.84
2022-09-28T16:21:45.766Z,63.81
2022-09-28T16:24:23.295Z,63.92
2022-09-28T16:26:59.523Z,64.30
2022-09-28T16:29:35.272Z,64.55
2022-09-28T16:32:37.188Z,65.43
2022-09-28T16:35:21.156Z,64.64
2022-09-28T16:37:57.333Z,65.34
2022-09-28T16:40:30.454Z,64.60
2022-09-28T16:43:04.385Z,64.78
2022-09-28T16:45:36.078Z,64.97
2022-09-28T16:48:25.055Z,65.12
2022-09-28T16:50:54.187Z,65.81
2022-09-28T16:53:38.501Z,65.43
2022-09-28T16:56:12.174Z,66.19
2022-09-28T16:58:48.761Z,65.26
2022-09-28T17:01:17.435Z,65.66
2022-09-28T17:03:48.053Z,66.04
2022-09-28T17:06:20.866Z,65.77
2022-09-28T17:08:51.181Z,65.84
2022-09-28T17:11:24.438Z,66.58
2022-09-28T17:13:58.749Z,66.59
2022-09-28T17:19:24.624Z,65.99
2022-09-28T17:21:53.470Z,67.00
2022-09-28T17:24:22.311Z,66.74
2022-09-28T17:26:53.032Z,66.77
2022-09-28T17:29:23.363Z,67.08
2022-09-28T17:31:54.808Z,67.39
2022-09-28T17:34:29.540Z,67.66
2022-09-28T17:37:01.111Z,67.20
2022-09-28T17:39:31.322Z,67.39
2022-09-28T17:42:00.000Z,67.15
2022-09-28T17:44:28.892Z,67.15
2022-09-28T17:46:58.907Z,67.76
2022-09-28T17:49:29.166Z,67.16
2022-09-28T17:52:00.328Z,68.45
2022-09-28T17:54:29.327Z,67.57
2022-09-28T17:56:58.909Z,67.86
2022-09-28T17:59:28.393Z,67.68
2022-09-28T18:02:02.376Z,68.08
2022-09-28T18:04:51.297Z,68.61
2022-09-28T18:07:33.826Z,69.18
2022-09-28T18:10:12.507Z,69.27
2022-09-28T18:12:44.872Z,68.92
2022-09-28T18:15:18.373Z,69.82
2022-09-28T18:17:47.990Z,69.82
2022-09-28T18:20:17.934Z,69.76
2022-09-28T18:22:47.288Z,69.08
2022-09-28T18:25:19.871Z,69.44
2022-09-28T18:27:49.119Z,69.07
2022-09-28T18:30:21.197Z,69.34
2022-09-28T18:32:55.252Z,69.65
2022-09-28T18:35:24.925Z,69.88
2022-09-28T18:37:54.838Z,69.60
2022-09-28T18:40:24.155Z,69.53
2022-09-28T18:42:54.981Z,70.33
2022-09-28T18:45:26.432Z,70.01
2022-09-28T18:47:55.479Z,70.70
2022-09-28T18:50:25.889Z,70.24
2022-09-28T18:53:10.881Z,69.65
2022-09-28T18:55:42.365Z,70.26
2022-09-28T18:58:15.860Z,70.53
2022-09-28T19:00:45.104Z,70.92
2022-09-28T19:03:14.985Z,70.16
2022-09-28T19:05:44.727Z,70.75
2022-09-28T19:08:13.556Z,70.76
2022-09-28T19:10:44.210Z,70.98
2022-09-28T19:13:17.573Z,71.06
2022-09-28T19:15:49.679Z,70.65
2022-09-28T19:18:19.092Z,70.80
2022-09-28T19:20:48.023Z,71.23
2022-09-28T19:23:19.605Z,70.84
2022-09-28T19:25:48.300Z,71.09
2022-09-28T19:28:18.647Z,71.13
2022-09-28T19:30:56.767Z,71.94
2022-09-28T19:33:25.908Z,71.11
2022-09-28T19:36:00.611Z,71.08
2022-09-28T19:38:35.065Z,71.64
2022-09-28T19:41:10.647Z,71.66
2022-09-28T19:43:41.867Z,71.20
2022-09-28T19:46:12.653Z,72.09
2022-09-28T19:48:41.927Z,72.14
2022-09-28T19:51:11.526Z,71.45
2022-09-28T19:53:40.610Z,71.43
2022-09-28T19:56:10.671Z,71.81
2022-09-28T19:58:40.206Z,72.36
2022-09-28T20:01:10.158Z,72.38
2022-09-28T20:03:39.160Z,72.47
2022-09-28T20:06:16.436Z,72.05
2022-09-28T20:08:46.458Z,72.05
2022-09-28T20:11:15.234Z,72.17
2022-09-28T20:13:43.910Z,72.40
2022-09-28T20:16:14.702Z,72.84
2022-09-28T20:18:50.100Z,72.74
2022-09-28T20:21:25.170Z,72.11
2022-09-28T20:23:56.839Z,72.59
2022-09-28T20:26:27.006Z,72.29
2022-09-28T20:28:58.438Z,72.10
2022-09-28T20:31:28.054Z,72.68
2022-09-28T20:33:57.113Z,72.35
2022-09-28T20:36:26.117Z,72.41
2022-09-28T20:38:57.775Z,72.27
2022-09-28T20:41:27.153Z,72.46
2022-09-28T20:44:01.577Z,72.95
2022-09-28T20:46:37.670Z,72.75
2022-09-28T20:49:07.344Z,73.42
2022-09-28T20:51:36.922Z,72.75
2022-09-28T20:54:05.788Z,73.29
2022-09-28T20:56:38.436Z,73.56
2022-09-28T20:59:11.501Z,73.41
2022-09-28T21:01:40.817Z,73.15
2022-09-28T21:04:11.865Z,73.24
2022-09-28T21:06:41.992Z,73.65
2022-09-28T21:09:12.915Z,73.04
2022-09-28T21:11:41.524Z,73.59
2022-09-28T21:14:13.330Z,73.06
2022-09-28T21:16:41.826Z,73.58
2022-09-28T21:19:13.084Z,73.47
2022-09-28T21:21:42.125Z,73.37
2022-09-28T21:24:12.566Z,74.16
2022-09-28T21:26:41.361Z,73.32
2022-09-28T21:29:13.657Z,73.79
2022-09-28T21:31:45.416Z,73.81
2022-09-28T21:34:18.692Z,73.73
2022-09-28T21:36:50.605Z,74.04
2022-09-28T21:39:20.065Z,73.66
2022-09-28T21:41:49.045Z,73.63
2022-09-28T21:44:17.831Z,73.38
2022-09-28T21:46:46.541Z,74.26
2022-09-28T21:49:15.209Z,73.90
2022-09-28T21:51:46.453Z,74.15
2022-09-28T21:54:15.110Z,74.18
2022-09-28T21:56:43.911Z,74.25
2022-09-28T21:59:14.805Z,73.82
2022-09-28T22:01:43.747Z,73.97
2022-09-28T22:04:13.975Z,73.90
2022-09-28T22:06:45.595Z,74.57
2022-09-28T22:09:14.537Z,73.97
2022-09-28T22:11:43.653Z,74.57
2022-09-28T22:14:14.633Z,74.09
2022-09-28T22:16:43.463Z,74.24
2022-09-28T22:19:13.032Z,74.47
2022-09-28T22:21:42.904Z,74.40
2022-09-28T22:24:12.728Z,74.46
2022-09-28T22:26:41.318Z,74.14
2022-09-28T22:29:13.111Z,74.63
2022-09-28T22:31:41.959Z,74.84
2022-09-28T22:34:12.975Z,74.44
2022-09-28T22:36:41.962Z,74.75
2022-09-28T22:39:11.017Z,75.09
2022-09-28T22:41:41.254Z,74.52
2022-09-28T22:44:10.165Z,74.83
2022-09-28T22:46:40.269Z,74.80
2022-09-28T22:49:12.825Z,74.90
2022-09-28T22:51:41.640Z,75.02
2022-09-28T22:54:16.011Z,74.92
2022-09-28T22:56:45.353Z,74.70
2022-09-28T22:59:14.454Z,75.26
2022-09-28T23:01:43.441Z,74.86
2022-09-28T23:04:13.873Z,74.97
2022-09-28T23:06:42.677Z,75.46
2022-09-28T23:09:12.317Z,75.52
2022-09-28T23:11:41.005Z,75.23
2022-09-28T23:14:12.842Z,75.16
2022-09-28T23:16:41.959Z,75.32
2022-09-28T23:19:11.307Z,75.34
2022-09-28T23:21:43.038Z,75.30
2022-09-28T23:24:13.035Z,75.46
2022-09-28T23:26:41.817Z,75.09
2022-09-28T23:29:12.919Z,75.29
2022-09-28T23:31:42.146Z,75.41
2022-09-28T23:34:11.513Z,75.39
2022-09-28T23:36:40.719Z,75.34
2022-09-28T23:39:12.404Z,75.40
2022-09-28T23:41:41.363Z,75.68
2022-09-28T23:44:10.397Z,75.69
2022-09-28T23:46:39.812Z,75.56
2022-09-28T23:49:08.459Z,75.85
2022-09-28T23:51:37.441Z,75.54
2022-09-28T23:54:07.009Z,75.63
2022-09-28T23:56:35.958Z,76.07
2022-09-28T23:59:04.753Z,75.94
